createdAt,value
2022-11-08T00:04:20.789Z,12.8
2022-11-08T00:09:21.125Z,12.9
2022-11-08T00:14:20.433Z,12.9
2022-11-08T00:19:20.776Z,12.9
2022-11-08T00:24:21.008Z,12.9
2022-11-08T00:29:20.395Z,13.1
2022-11-08T00:34:20.817Z,13.1
2022-11-08T00:39:20.400Z,13.2
2022-11-08T00:44:20.794Z,13.2
2022-11-08T00:49:20.320Z,13.2
2022-11-08T00:54:20.717Z,13.2
2022-11-08T00:59:20.961Z,13.2
2022-11-08T01:04:20.290Z,13.2
2022-11-08T01:09:20.653Z,13.2
2022-11-08T01:14:21.023Z,13.2
2022-11-08T01:19:20.348Z,13.1
2022-11-08T01:24:20.594Z,13.1
2022-11-08T01:29:20.876Z,13.1
2022-11-08T01:34:20.552Z,13.1
2022-11-08T01:39:21.236Z,13
2022-11-08T01:44:20.659Z,13
2022-11-08T01:49:20.955Z,12.9
2022-11-08T01:54:20.396Z,12.9
2022-11-08T01:59:20.625Z,12.9
2022-11-08T02:04:21.014Z,12.9
2022-11-08T02:09:21.344Z,12.8
2022-11-08T02:14:20.880Z,12.8
2022-11-08T02:19:21.102Z,12.7
2022-11-08T02:24:20.508Z,12.7
2022-11-08T02:29:20.662Z,12.7
2022-11-08T02:34:20.899Z,12.7
2022-11-08T02:39:21.053Z,12.7
2022-11-08T02:44:20.460Z,12.7
2022-11-08T02:49:20.632Z,12.7
2022-11-08T02:54:20.720Z,12.7
2022-11-08T02:59:21.272Z,12.7
2022-11-08T03:04:21.128Z,12.7
2022-11-08T03:09:20.917Z,12.8
2022-11-08T03:14:20.334Z,12.8
2022-11-08T03:19:20.820Z,12.8
2022-11-08T03:24:21.003Z,12.8
2022-11-08T03:29:20.943Z,12.8
2022-11-08T03:34:20.926Z,12.8
2022-11-08T03:39:21.177Z,12.8
2022-11-08T03:44:21.256Z,12.8
2022-11-08T03:49:20.816Z,12.8
2022-11-08T03:54:20.481Z,12.8
2022-11-08T03:59:21.186Z,12.7
2022-11-08T04:04:21.279Z,12.7
2022-11-08T04:09:21.945Z,12.6
2022-11-08T04:14:21.152Z,12.6
2022-11-08T04:19:20.427Z,12.4
2022-11-08T04:24:20.814Z,12.4
2022-11-08T04:29:21.379Z,12.3
2022-11-08T04:34:20.816Z,12.3
2022-11-08T04:39:21.187Z,12.2
2022-11-08T04:44:20.623Z,12.2
2022-11-08T04:49:20.933Z,12.1
2022-11-08T04:54:20.610Z,12.1
2022-11-08T04:59:20.891Z,11.9
2022-11-08T05:04:21.224Z,11.9
2022-11-08T05:09:20.588Z,11.8
2022-11-08T05:14:20.878Z,11.8
2022-11-08T05:19:21.301Z,11.7
2022-11-08T05:24:20.658Z,11.7
2022-11-08T05:29:21.126Z,11.6
2022-11-08T05:34:21.292Z,11.6
2022-11-08T05:39:21.215Z,11.6
2022-11-08T05:44:20.391Z,11.6
2022-11-08T05:49:20.764Z,11.4
2022-11-08T05:54:21.437Z,11.4
2022-11-08T05:59:20.654Z,11.3
2022-11-08T06:04:21.404Z,11.3
2022-11-08T06:09:20.529Z,11.2
2022-11-08T06:14:21.109Z,11.2
2022-11-08T06:19:21.305Z,11.2
2022-11-08T06:24:20.565Z,11.2
2022-11-08T06:29:20.920Z,11.1
2022-11-08T06:34:21.270Z,11.1
2022-11-08T06:39:20.591Z,11.1
2022-11-08T06:44:20.883Z,11.1
2022-11-08T06:49:20.861Z,11.1
2022-11-08T06:54:27.099Z,11.1
2022-11-08T06:59:21.543Z,11.1
2022-11-08T07:04:20.803Z,11.1
2022-11-08T07:09:21.171Z,11.1
2022-11-08T07:14:21.479Z,11.1
2022-11-08T07:19:21.599Z,11.1
2022-11-08T07:24:20.695Z,11.1
2022-11-08T07:29:20.948Z,11
2022-11-08T07:34:21.269Z,11
2022-11-08T07:39:21.205Z,11.1
2022-11-08T07:44:20.702Z,11.1
2022-11-08T07:49:20.976Z,11.3
2022-11-08T07:54:20.588Z,11.3
2022-11-08T07:59:20.952Z,11.6
2022-11-08T08:04:21.545Z,11.6
2022-11-08T08:09:21.122Z,11.7
2022-11-08T08:14:21.519Z,11.7
2022-11-08T08:19:20.927Z,11.7
2022-11-08T08:24:20.639Z,11.7
2022-11-08T08:29:20.824Z,12.3
2022-11-08T08:34:20.981Z,12.3
2022-11-08T08:39:21.295Z,12.7
2022-11-08T08:44:20.971Z,12.7
2022-11-08T08:49:21.262Z,12.7
2022-11-08T08:54:22.753Z,12.7
2022-11-08T09:04:21.188Z,12.8
2022-11-08T09:09:20.909Z,13
2022-11-08T09:14:20.766Z,13
2022-11-08T09:19:21.375Z,13.3
2022-11-08T09:24:21.257Z,13.3
2022-11-08T09:29:20.683Z,13.6
2022-11-08T09:34:22.053Z,13.6
2022-11-08T09:39:21.297Z,13.7
2022-11-08T09:44:20.592Z,13.7
2022-11-08T09:49:21.010Z,13.7
2022-11-08T09:54:22.320Z,13.7
2022-11-08T09:59:22.160Z,13.7
2022-11-08T10:04:21.293Z,13.7
2022-11-08T10:09:20.638Z,13.7
2022-11-08T10:14:21.107Z,13.7
2022-11-08T10:19:21.030Z,13.8
2022-11-08T10:24:21.168Z,13.8
2022-11-08T10:29:21.429Z,13.8
2022-11-08T10:34:21.021Z,13.8
2022-11-08T10:39:21.430Z,13.8
2022-11-08T10:44:21.258Z,13.8
2022-11-08T10:49:20.849Z,13.9
2022-11-08T10:54:21.201Z,13.9
2022-11-08T10:59:21.459Z,14.1
2022-11-08T11:04:20.721Z,14.1
2022-11-08T11:09:21.060Z,14.4
2022-11-08T11:14:23.081Z,14.4
2022-11-08T11:19:21.544Z,14.6
2022-11-08T11:24:21.048Z,14.6
2022-11-08T11:29:21.531Z,14.8
2022-11-08T11:34:20.768Z,14.8
2022-11-08T11:39:21.075Z,15.1
2022-11-08T11:44:21.654Z,15.1
2022-11-08T11:49:21.056Z,15.3
2022-11-08T11:54:21.289Z,15.3
2022-11-08T11:59:21.583Z,15.3
2022-11-08T12:04:20.761Z,15.3
2022-11-08T12:09:21.307Z,15.3
2022-11-08T12:14:20.788Z,15.3
2022-11-08T12:19:21.107Z,15.4
2022-11-08T12:24:21.146Z,15.4
2022-11-08T12:29:21.343Z,15.5
2022-11-08T12:34:21.644Z,15.5
2022-11-08T12:39:24.083Z,15.5
2022-11-08T12:44:21.309Z,15.5
2022-11-08T12:49:21.605Z,15.5
2022-11-08T12:54:21.313Z,15.5
2022-11-08T12:59:21.609Z,15.6
2022-11-08T13:04:20.964Z,15.6
2022-11-08T13:09:21.362Z,15.6
2022-11-08T13:14:20.922Z,15.6
2022-11-08T13:19:21.548Z,15.4
2022-11-08T13:24:45.153Z,15.4
2022-11-08T13:29:21.051Z,15.5
2022-11-08T13:34:21.296Z,15.5
2022-11-08T13:39:21.727Z,15.7
2022-11-08T13:44:20.930Z,15.7
2022-11-08T13:49:21.070Z,15.7
2022-11-08T13:54:21.256Z,15.7
2022-11-08T13:59:27.175Z,15.4
2022-11-08T14:04:21.565Z,15.4
2022-11-08T14:09:20.752Z,15.3
2022-11-08T14:14:21.599Z,15.3
2022-11-08T14:19:21.201Z,15.3
2022-11-08T14:24:21.517Z,15.3
2022-11-08T14:29:20.834Z,15.3
2022-11-08T14:34:21.343Z,15.3
2022-11-08T14:39:21.606Z,15.3
2022-11-08T14:44:20.947Z,15.3
2022-11-08T14:49:21.394Z,15.3
2022-11-08T14:54:21.395Z,15.3
2022-11-08T14:59:21.561Z,15.3
2022-11-08T15:04:20.918Z,15.3
2022-11-08T15:09:21.864Z,15.3
2022-11-08T15:14:21.900Z,15.3
2022-11-08T15:19:21.706Z,15.3
2022-11-08T15:24:21.661Z,15.3
2022-11-08T15:29:21.170Z,15.3
2022-11-08T15:34:21.116Z,15.3
2022-11-08T15:39:21.053Z,15.3
2022-11-08T15:44:21.481Z,15.3
2022-11-08T15:49:21.524Z,15.3
2022-11-08T15:54:21.444Z,15.3
2022-11-08T15:59:21.918Z,15.3
2022-11-08T16:04:21.669Z,15.3
2022-11-08T16:09:21.827Z,15.3
2022-11-08T16:14:21.334Z,15.3
2022-11-08T16:19:21.637Z,15.3
2022-11-08T16:24:20.846Z,15.3
2022-11-08T16:29:21.759Z,15.3
2022-11-08T16:34:20.891Z,15.3
2022-11-08T16:39:21.060Z,15.3
2022-11-08T16:44:21.484Z,15.3
2022-11-08T16:49:21.713Z,15.3
2022-11-08T16:54:21.062Z,15.3
2022-11-08T16:59:21.185Z,15.3
2022-11-08T17:04:21.619Z,15.3
2022-11-08T17:09:21.304Z,15.2
2022-11-08T17:14:21.652Z,15.2
2022-11-08T17:19:20.891Z,15.3
2022-11-08T17:24:22.390Z,15.3
2022-11-08T17:29:21.626Z,15.3
2022-11-08T17:34:21.027Z,15.3
2022-11-08T17:39:21.267Z,15.2
2022-11-08T17:44:21.648Z,15.2
2022-11-08T17:49:21.945Z,15.2
2022-11-08T17:54:21.673Z,15.2
2022-11-08T17:59:21.837Z,15.2
2022-11-08T18:04:21.386Z,15.2
2022-11-08T18:09:21.783Z,15.1
2022-11-08T18:14:28.803Z,15.1
2022-11-08T18:19:21.178Z,15
2022-11-08T18:24:21.420Z,15
2022-11-08T18:29:21.548Z,14.9
2022-11-08T18:34:21.936Z,14.9
2022-11-08T18:39:21.108Z,14.8
2022-11-08T18:44:21.727Z,14.8
2022-11-08T18:49:21.954Z,14.8
2022-11-08T18:54:21.332Z,14.8
2022-11-08T18:59:21.688Z,14.7
2022-11-08T19:04:21.228Z,14.7
2022-11-08T19:09:21.642Z,14.6
2022-11-08T19:14:21.890Z,14.6
2022-11-08T19:19:21.322Z,14.6
2022-11-08T19:24:21.509Z,14.6
2022-11-08T19:29:21.755Z,14.6
2022-11-08T19:34:21.400Z,14.6
2022-11-08T19:39:21.717Z,14.7
2022-11-08T19:44:21.328Z,14.7
2022-11-08T19:49:21.168Z,14.8
2022-11-08T19:54:21.198Z,14.8
2022-11-08T19:59:21.469Z,14.8
2022-11-08T20:04:21.833Z,14.8
2022-11-08T20:09:30.573Z,14.8
2022-11-08T20:14:21.465Z,14.8
2022-11-08T20:19:21.065Z,14.7
2022-11-08T20:24:21.565Z,14.7
2022-11-08T20:29:21.757Z,14.7
2022-11-08T20:34:21.001Z,14.7
2022-11-08T20:39:21.466Z,14.6
2022-11-08T20:44:21.183Z,14.6
2022-11-08T20:49:21.632Z,14.5
2022-11-08T20:54:21.635Z,14.5
2022-11-08T20:59:21.038Z,14.6
2022-11-08T21:04:22.028Z,14.6
2022-11-08T21:14:21.695Z,14.6
2022-11-08T21:19:21.603Z,14.5
2022-11-08T21:24:21.106Z,14.5
2022-11-08T21:29:21.391Z,14.4
2022-11-08T21:34:21.462Z,14.4
2022-11-08T21:39:22.077Z,14.4
2022-11-08T21:44:21.322Z,14.4
2022-11-08T21:49:21.746Z,14.4
2022-11-08T21:54:21.014Z,14.4
2022-11-08T21:59:21.317Z,14.3
2022-11-08T22:04:21.759Z,14.3
2022-11-08T22:09:22.096Z,14.3
2022-11-08T22:14:21.465Z,14.3
2022-11-08T22:19:21.791Z,14.3
2022-11-08T22:24:22.109Z,14.3
2022-11-08T22:29:21.688Z,14.2
2022-11-08T22:34:21.936Z,14.2
2022-11-08T22:39:21.782Z,14.2
2022-11-08T22:44:21.377Z,14.2
2022-11-08T22:49:21.553Z,14.1
2022-11-08T22:54:21.175Z,14.1
2022-11-08T22:59:21.572Z,14.1
2022-11-08T23:04:21.868Z,14.1
2022-11-08T23:09:21.629Z,14
2022-11-08T23:14:21.222Z,14
2022-11-08T23:19:21.834Z,13.9
2022-11-08T23:24:21.514Z,13.9
2022-11-08T23:29:21.749Z,13.9
2022-11-08T23:34:21.183Z,13.9
2022-11-08T23:39:21.589Z,13.9
2022-11-08T23:44:21.785Z,13.9
2022-11-08T23:49:22.048Z,13.8
2022-11-08T23:54:21.284Z,13.8
2022-11-08T23:59:21.697Z,13.8
